KGCC

Gillette-Campbell County Airport

Gillette, Wyoming, USA
METAR KGCC 231053Z AUTO 16009KT 10SM CLR 06/M02 A3016 RMK AO2 SLP199 T00611017
Observed Flight Rules
Oct-23 @ 10:53 UTC (57 minutes ago) Visual Flight Rules
Wind Visibility Clouds
160° at 9 knots 10 miles
  • Clear skies
Temperatures Readings
Current 6°C / 43°F
Dewpoint -2°C / 28°F
Humidity 57%
Altimeter 30.16" Hg
Pressure 1019.9 hPa
Elevation 1320
METAR KGCC 231053Z AUTO 16009KT 10SM CLR 06/M02 A3016 RMK AO2 SLP199 T00611017
Observed Flight Rules
Oct-23 @ 10:53 UTC
(57 minutes ago)
VFR
Wind Visibility
160° at 9 knots 10 miles
Clouds
  • Clear skies
Temperature Dewpoint
6°C / 43°F -2°C / 28°F
Humidity Altimeter Pressure
57% 30.16" Hg 1019.9 hPa